createdAt,value
2023-02-28T00:00:19.700Z,56.41
2023-02-28T00:03:21.112Z,56.49
2023-02-28T00:06:22.806Z,56.59
2023-02-28T00:09:24.183Z,56.95
2023-02-28T00:12:25.666Z,56.30
2023-02-28T00:15:27.388Z,57.15
2023-02-28T00:18:31.499Z,57.04
2023-02-28T00:21:33.045Z,56.90
2023-02-28T00:24:34.501Z,56.85
2023-02-28T00:27:37.515Z,56.95
2023-02-28T00:30:39.827Z,57.49
2023-02-28T00:33:41.248Z,57.68
2023-02-28T00:36:46.239Z,57.12
2023-02-28T00:39:47.630Z,57.88
2023-02-28T00:42:51.055Z,57.99
2023-02-28T00:45:52.566Z,58.76
2023-02-28T00:48:53.995Z,58.21
2023-02-28T00:51:56.493Z,58.79
2023-02-28T00:54:58.171Z,59.29
2023-02-28T00:57:59.679Z,59.32
2023-02-28T01:01:01.326Z,59.40
2023-02-28T01:04:02.752Z,59.55
2023-02-28T01:07:04.206Z,59.44
2023-02-28T01:10:06.110Z,59.97
2023-02-28T01:13:07.995Z,60.50
2023-02-28T01:16:14.003Z,60.03
2023-02-28T01:19:15.421Z,60.75
2023-02-28T01:22:16.852Z,61.05
2023-02-28T01:25:18.267Z,60.95
2023-02-28T01:28:19.792Z,60.92
2023-02-28T01:31:22.214Z,61.46
2023-02-28T01:34:24.122Z,61.93
2023-02-28T01:37:26.418Z,61.82
2023-02-28T01:40:27.831Z,61.97
2023-02-28T01:43:53.827Z,62.55
2023-02-28T01:46:55.220Z,62.56
2023-02-28T01:49:57.119Z,62.89
2023-02-28T01:53:02.698Z,62.91
2023-02-28T01:56:09.354Z,62.66
2023-02-28T01:59:15.060Z,63.22
2023-02-28T02:02:18.535Z,63.22
2023-02-28T02:05:26.472Z,63.45
2023-02-28T02:08:30.038Z,63.74
2023-02-28T02:11:31.932Z,63.90
2023-02-28T02:14:49.147Z,63.64
2023-02-28T02:17:57.040Z,63.89
2023-02-28T02:21:37.004Z,63.93
2023-02-28T02:24:41.607Z,64.35
2023-02-28T02:28:30.908Z,64.68
2023-02-28T02:31:57.047Z,64.69
2023-02-28T02:35:43.836Z,65.21
2023-02-28T02:39:03.283Z,65.41
2023-02-28T02:42:15.003Z,65.59
2023-02-28T02:45:24.705Z,65.42
2023-02-28T02:48:33.165Z,66.01
2023-02-28T02:51:35.710Z,66.25
2023-02-28T02:54:41.082Z,66.37
2023-02-28T02:57:54.754Z,65.78
2023-02-28T03:01:01.632Z,65.74
2023-02-28T03:04:18.972Z,66.53
2023-02-28T03:07:22.354Z,66.76
2023-02-28T03:10:44.322Z,66.75
2023-02-28T03:14:10.940Z,67.10
2023-02-28T03:17:26.018Z,67.23
2023-02-28T03:20:53.766Z,66.96
2023-02-28T03:24:05.528Z,67.22
2023-02-28T03:27:17.604Z,66.96
2023-02-28T03:30:28.883Z,67.19
2023-02-28T03:33:39.007Z,67.54
2023-02-28T03:36:46.904Z,67.88
2023-02-28T03:39:54.598Z,67.90
2023-02-28T03:43:03.293Z,67.59
2023-02-28T03:46:10.245Z,67.49
2023-02-28T03:49:25.665Z,67.47
2023-02-28T03:52:33.413Z,67.59
2023-02-28T03:55:43.516Z,68.11
2023-02-28T03:59:03.561Z,68.80
2023-02-28T04:02:05.110Z,69.14
2023-02-28T04:05:08.109Z,69.70
2023-02-28T04:08:09.562Z,69.13
2023-02-28T04:11:29.771Z,69.00
2023-02-28T04:14:31.414Z,69.25
2023-02-28T04:17:32.869Z,69.66
2023-02-28T04:20:34.260Z,69.68
2023-02-28T04:23:35.647Z,70.14
2023-02-28T04:26:37.638Z,69.62
2023-02-28T04:29:39.141Z,69.40
2023-02-28T04:32:40.623Z,69.72
2023-02-28T04:35:42.223Z,69.94
2023-02-28T04:38:43.601Z,70.26
2023-02-28T04:41:46.359Z,69.91
2023-02-28T04:44:48.168Z,69.62
2023-02-28T04:47:49.559Z,69.89
2023-02-28T04:50:51.781Z,69.34
2023-02-28T04:53:53.398Z,69.89
2023-02-28T04:56:55.686Z,69.64
2023-02-28T04:59:57.060Z,69.50
2023-02-28T05:02:58.422Z,69.06
2023-02-28T05:05:59.785Z,69.19
2023-02-28T05:09:01.274Z,69.63
2023-02-28T05:12:02.784Z,69.10
2023-02-28T05:15:05.840Z,68.79
2023-02-28T05:18:09.159Z,68.64
2023-02-28T05:21:25.550Z,68.15
2023-02-28T05:24:27.088Z,68.01
2023-02-28T05:27:29.214Z,68.23
2023-02-28T05:30:30.944Z,67.92
2023-02-28T05:33:32.353Z,67.18
2023-02-28T05:36:34.457Z,67.67
2023-02-28T05:39:35.888Z,67.81
2023-02-28T05:42:38.402Z,67.50
2023-02-28T05:45:39.864Z,67.38
2023-02-28T05:48:42.946Z,67.75
2023-02-28T05:51:44.542Z,66.81
2023-02-28T05:54:47.740Z,66.99
2023-02-28T05:57:49.110Z,67.61
2023-02-28T06:00:50.485Z,66.95
2023-02-28T06:03:51.931Z,66.82
2023-02-28T06:06:53.431Z,66.86
2023-02-28T06:09:54.799Z,67.42
2023-02-28T06:12:56.211Z,67.23
2023-02-28T06:15:57.592Z,67.18
2023-02-28T06:19:00.621Z,67.87
2023-02-28T06:22:02.080Z,67.51
2023-02-28T06:25:07.364Z,67.58
2023-02-28T06:28:08.783Z,67.66
2023-02-28T06:31:17.798Z,67.28
2023-02-28T06:34:19.266Z,67.21
2023-02-28T06:37:21.008Z,67.42
2023-02-28T06:40:22.432Z,68.19
2023-02-28T06:43:25.605Z,67.93
2023-02-28T06:46:27.069Z,66.92
2023-02-28T06:49:28.613Z,66.87
2023-02-28T06:52:30.366Z,66.96
2023-02-28T06:55:32.078Z,67.54
2023-02-28T06:58:34.391Z,67.98
2023-02-28T07:01:35.840Z,66.91
2023-02-28T07:04:37.381Z,66.90
2023-02-28T07:07:41.513Z,66.08
2023-02-28T07:10:42.932Z,66.42
2023-02-28T07:13:44.578Z,65.97
2023-02-28T07:16:46.756Z,65.21
2023-02-28T07:19:48.186Z,65.42
2023-02-28T07:22:56.065Z,64.88
2023-02-28T07:25:57.475Z,64.52
2023-02-28T07:28:58.916Z,64.44
2023-02-28T07:32:00.311Z,64.33
2023-02-28T07:35:01.696Z,63.30
2023-02-28T07:38:03.939Z,62.95
2023-02-28T07:41:05.443Z,62.75
2023-02-28T07:44:06.977Z,62.15
2023-02-28T07:47:10.132Z,63.00
2023-02-28T07:50:14.255Z,62.36
2023-02-28T07:53:15.632Z,62.04
2023-02-28T07:56:17.009Z,62.14
2023-02-28T07:59:18.497Z,61.77
2023-02-28T08:02:20.077Z,62.02
2023-02-28T08:05:22.249Z,62.23
2023-02-28T08:08:24.478Z,61.10
2023-02-28T08:11:25.934Z,61.69
2023-02-28T08:14:27.627Z,61.80
2023-02-28T08:17:29.852Z,61.23
2023-02-28T08:20:31.699Z,60.10
2023-02-28T08:23:34.503Z,59.28
2023-02-28T08:26:35.920Z,59.61
2023-02-28T08:29:40.413Z,60.09
2023-02-28T08:32:42.013Z,59.82
2023-02-28T08:35:43.458Z,59.05
2023-02-28T08:38:44.922Z,59.00
2023-02-28T08:41:49.371Z,59.07
2023-02-28T08:44:52.623Z,58.68
2023-02-28T08:47:55.533Z,58.57
2023-02-28T08:51:19.485Z,58.26
2023-02-28T08:54:20.899Z,57.79
2023-02-28T08:57:22.334Z,57.21
2023-02-28T09:00:23.999Z,57.25
2023-02-28T09:03:25.621Z,55.92
2023-02-28T09:06:28.081Z,57.18
2023-02-28T09:09:29.695Z,56.62
2023-02-28T09:12:35.262Z,56.25
2023-02-28T09:15:38.685Z,56.15
2023-02-28T09:18:40.582Z,55.94
2023-02-28T09:21:42.168Z,55.58
2023-02-28T09:24:45.669Z,55.37
2023-02-28T09:27:47.151Z,54.69
2023-02-28T09:30:52.392Z,54.33
2023-02-28T09:33:55.852Z,54.91
2023-02-28T09:36:57.459Z,54.63
2023-02-28T09:39:58.904Z,54.63
2023-02-28T09:43:01.170Z,53.21
2023-02-28T09:46:24.419Z,52.57
2023-02-28T09:49:34.246Z,53.00
2023-02-28T09:52:37.381Z,53.22
2023-02-28T09:55:47.271Z,53.31
2023-02-28T09:58:52.003Z,53.55
2023-02-28T10:02:22.052Z,52.99
2023-02-28T10:05:54.344Z,52.28
2023-02-28T10:09:06.866Z,51.65
2023-02-28T10:12:12.453Z,51.48
2023-02-28T10:15:18.259Z,51.50
2023-02-28T10:18:25.720Z,51.87
2023-02-28T10:21:33.314Z,50.93
2023-02-28T10:24:46.901Z,51.41
2023-02-28T10:27:48.782Z,50.49
2023-02-28T10:30:52.754Z,50.06
2023-02-28T10:33:54.288Z,50.15
2023-02-28T10:36:56.721Z,49.70
2023-02-28T10:39:58.176Z,49.52
2023-02-28T10:43:01.834Z,48.98
2023-02-28T10:46:09.036Z,49.25
2023-02-28T10:49:21.219Z,49.03
2023-02-28T10:52:41.736Z,48.69
2023-02-28T10:55:43.473Z,48.65
2023-02-28T10:58:55.683Z,48.84
2023-02-28T11:01:57.349Z,48.29
2023-02-28T11:04:58.880Z,48.40
2023-02-28T11:08:07.596Z,47.57
2023-02-28T11:11:09.026Z,47.94
2023-02-28T11:14:27.066Z,47.92
2023-02-28T11:17:31.586Z,48.15
2023-02-28T11:20:35.036Z,47.13
2023-02-28T11:23:41.029Z,47.58
2023-02-28T11:26:49.469Z,48.03
2023-02-28T11:29:50.876Z,47.76
2023-02-28T11:32:52.381Z,47.82
2023-02-28T11:35:59.627Z,46.78
2023-02-28T11:39:09.783Z,45.94
2023-02-28T11:42:41.299Z,46.82
2023-02-28T11:46:11.720Z,46.58
2023-02-28T11:49:31.900Z,46.69
2023-02-28T11:53:17.755Z,47.49
2023-02-28T11:56:37.044Z,47.27
2023-02-28T11:59:53.793Z,46.70
2023-02-28T12:03:22.581Z,46.48
2023-02-28T12:06:50.182Z,45.15
2023-02-28T12:10:12.488Z,45.00
2023-02-28T12:13:22.610Z,44.91
2023-02-28T12:16:46.748Z,45.46
2023-02-28T12:20:03.964Z,44.21
2023-02-28T12:23:27.068Z,42.29
2023-02-28T12:26:40.831Z,43.51
2023-02-28T12:29:53.172Z,42.60
2023-02-28T12:33:10.163Z,42.42
2023-02-28T12:36:18.339Z,43.63
2023-02-28T12:39:27.088Z,42.63
2023-02-28T12:42:32.564Z,42.38
2023-02-28T12:45:52.054Z,42.59
2023-02-28T12:48:57.933Z,41.98
2023-02-28T12:52:02.532Z,41.10
2023-02-28T12:55:12.861Z,41.84
2023-02-28T12:58:23.496Z,41.59
2023-02-28T13:01:50.083Z,41.82
2023-02-28T13:05:25.603Z,41.98
2023-02-28T13:08:39.067Z,41.75
2023-02-28T13:11:55.390Z,41.75
2023-02-28T13:15:22.091Z,41.22
2023-02-28T13:18:46.164Z,41.60
2023-02-28T13:21:49.960Z,41.46
2023-02-28T13:24:57.418Z,40.99
2023-02-28T13:28:01.760Z,41.31
2023-02-28T13:31:05.666Z,41.22
2023-02-28T13:34:15.097Z,40.74
2023-02-28T13:37:22.686Z,41.58
2023-02-28T13:40:38.726Z,40.61
2023-02-28T13:44:09.853Z,40.72
2023-02-28T13:47:20.661Z,40.21
2023-02-28T13:50:32.924Z,40.25
2023-02-28T13:53:50.583Z,41.38
2023-02-28T13:57:08.875Z,39.57
2023-02-28T14:00:42.355Z,40.89
2023-02-28T14:04:07.429Z,41.20
2023-02-28T14:07:16.684Z,42.00
2023-02-28T14:10:31.741Z,41.69
2023-02-28T14:13:59.863Z,41.63
2023-02-28T14:17:03.139Z,40.49
2023-02-28T14:20:05.032Z,40.81
2023-02-28T14:23:21.757Z,40.36
2023-02-28T14:27:00.911Z,40.32
2023-02-28T14:30:33.101Z,39.54
2023-02-28T14:33:49.841Z,39.48
2023-02-28T14:36:54.122Z,39.76
2023-02-28T14:39:57.190Z,39.87
2023-02-28T14:43:06.933Z,40.02
2023-02-28T14:46:08.529Z,40.17
2023-02-28T14:49:24.114Z,40.90
2023-02-28T14:52:29.677Z,40.98
2023-02-28T14:55:34.801Z,41.98
2023-02-28T14:58:36.479Z,41.53
2023-02-28T15:01:37.916Z,41.39
2023-02-28T15:04:39.327Z,41.96
2023-02-28T15:07:40.802Z,42.59
2023-02-28T15:10:51.536Z,43.60
2023-02-28T15:13:56.296Z,44.14
2023-02-28T15:17:03.288Z,44.37
2023-02-28T15:20:05.301Z,43.96
2023-02-28T15:23:06.915Z,44.48
2023-02-28T15:26:12.069Z,45.21
2023-02-28T15:29:21.876Z,45.18
2023-02-28T15:32:32.680Z,45.21
2023-02-28T15:35:34.574Z,45.33
2023-02-28T15:38:37.175Z,45.21
2023-02-28T15:41:39.061Z,45.24
2023-02-28T15:44:40.698Z,44.85
2023-02-28T15:47:47.173Z,45.74
2023-02-28T15:50:53.551Z,45.74
2023-02-28T15:54:22.742Z,46.11
2023-02-28T15:57:30.034Z,46.45
2023-02-28T16:00:33.758Z,47.04
2023-02-28T16:03:41.788Z,46.66
2023-02-28T16:07:00.781Z,46.79
2023-02-28T16:10:03.237Z,46.67
2023-02-28T16:13:04.836Z,46.78
2023-02-28T16:16:06.645Z,46.90
2023-02-28T16:19:09.250Z,46.69
2023-02-28T16:22:10.744Z,47.08
2023-02-28T16:25:17.510Z,47.20
2023-02-28T16:28:24.868Z,47.66
2023-02-28T16:31:26.273Z,47.94
2023-02-28T16:34:27.955Z,48.11
2023-02-28T16:37:29.491Z,47.74
2023-02-28T16:40:35.962Z,47.91
2023-02-28T16:43:38.934Z,48.25
2023-02-28T16:46:40.749Z,48.13
2023-02-28T16:49:43.927Z,48.55
2023-02-28T16:52:45.468Z,48.48
2023-02-28T16:55:48.163Z,48.39
2023-02-28T16:58:50.663Z,49.08
2023-02-28T17:01:52.923Z,48.56
2023-02-28T17:04:54.423Z,48.79
2023-02-28T17:07:55.826Z,48.90
2023-02-28T17:10:57.340Z,48.93
2023-02-28T17:13:58.779Z,49.06
2023-02-28T17:17:00.350Z,49.58
2023-02-28T17:20:01.836Z,49.59
2023-02-28T17:23:03.416Z,49.86
2023-02-28T17:26:07.411Z,49.50
2023-02-28T17:29:20.833Z,49.90
2023-02-28T17:32:22.237Z,49.93
2023-02-28T17:35:24.772Z,49.89
2023-02-28T17:38:26.396Z,50.14
2023-02-28T17:41:27.815Z,50.23
2023-02-28T17:44:29.235Z,50.29
2023-02-28T17:47:30.726Z,50.57
2023-02-28T17:50:32.830Z,50.71
2023-02-28T17:53:34.236Z,50.44
2023-02-28T17:56:35.795Z,50.49
2023-02-28T17:59:37.166Z,50.40
2023-02-28T18:02:38.626Z,51.04
2023-02-28T18:05:40.562Z,50.38
2023-02-28T18:08:42.238Z,50.68
2023-02-28T18:11:46.030Z,50.98
2023-02-28T18:14:48.684Z,51.07
2023-02-28T18:17:50.626Z,51.20
2023-02-28T18:20:53.202Z,51.41
2023-02-28T18:23:54.783Z,51.31
2023-02-28T18:26:56.161Z,51.34
2023-02-28T18:29:57.548Z,51.52
2023-02-28T18:33:00.364Z,51.70
2023-02-28T18:36:02.025Z,52.02
2023-02-28T18:39:03.561Z,52.40
2023-02-28T18:42:05.114Z,52.31
2023-02-28T18:45:07.383Z,52.30
2023-02-28T18:48:08.771Z,52.04
2023-02-28T18:51:13.146Z,52.52
2023-02-28T18:54:15.655Z,53.04
2023-02-28T18:57:17.093Z,52.67
2023-02-28T19:00:22.227Z,52.67
2023-02-28T19:03:23.763Z,52.86
2023-02-28T19:06:25.153Z,52.57
2023-02-28T19:09:26.677Z,53.29
2023-02-28T19:12:28.057Z,53.18
2023-02-28T19:15:29.460Z,53.28
2023-02-28T19:18:32.127Z,53.35
2023-02-28T19:21:36.344Z,53.60
2023-02-28T19:24:37.746Z,53.48
2023-02-28T19:27:39.469Z,53.67
2023-02-28T19:30:45.996Z,53.82
2023-02-28T19:33:47.428Z,54.30
2023-02-28T19:36:49.581Z,54.51
2023-02-28T19:39:51.634Z,54.24
2023-02-28T19:42:53.008Z,54.60
2023-02-28T19:45:54.498Z,54.65
2023-02-28T19:48:55.894Z,54.57
2023-02-28T19:51:58.081Z,54.88
2023-02-28T19:54:59.726Z,54.17
2023-02-28T19:58:01.157Z,54.43
2023-02-28T20:01:17.459Z,54.56
2023-02-28T20:04:18.920Z,54.67
2023-02-28T20:07:20.521Z,54.85
2023-02-28T20:10:21.946Z,54.98
2023-02-28T20:13:27.978Z,55.18
2023-02-28T20:16:31.141Z,54.71
2023-02-28T20:19:32.963Z,55.01
2023-02-28T20:22:38.242Z,54.33
2023-02-28T20:25:40.737Z,54.61
2023-02-28T20:28:43.397Z,54.41
2023-02-28T20:31:44.875Z,54.37
2023-02-28T20:34:46.280Z,54.81
2023-02-28T20:37:47.672Z,54.97
2023-02-28T20:40:49.068Z,54.40
2023-02-28T20:44:02.259Z,54.72
2023-02-28T20:47:03.835Z,54.44
2023-02-28T20:50:05.926Z,54.99
2023-02-28T20:53:07.401Z,55.00
2023-02-28T20:56:13.649Z,55.43
2023-02-28T20:59:15.112Z,55.30
2023-02-28T21:02:17.159Z,55.42
2023-02-28T21:05:18.579Z,55.26
2023-02-28T21:08:20.016Z,55.65
2023-02-28T21:11:25.407Z,56.35
2023-02-28T21:14:27.298Z,56.04
2023-02-28T21:17:29.235Z,56.15
2023-02-28T21:20:30.627Z,55.78
2023-02-28T21:23:32.350Z,56.00
2023-02-28T21:26:33.888Z,55.70
2023-02-28T21:29:36.248Z,56.00
2023-02-28T21:32:37.679Z,56.24
2023-02-28T21:35:39.119Z,56.09
2023-02-28T21:38:42.094Z,56.74
2023-02-28T21:41:43.708Z,56.43
2023-02-28T21:44:45.228Z,57.20
2023-02-28T21:47:46.682Z,57.13
2023-02-28T21:51:02.381Z,57.51
2023-02-28T21:54:04.048Z,57.97
2023-02-28T21:57:05.635Z,57.48
2023-02-28T22:00:08.814Z,57.68
2023-02-28T22:03:13.921Z,57.26
2023-02-28T22:06:21.162Z,58.22
2023-02-28T22:09:22.713Z,57.56
2023-02-28T22:12:25.610Z,57.99
2023-02-28T22:15:27.585Z,58.11
2023-02-28T22:18:28.979Z,58.21
2023-02-28T22:21:30.405Z,58.34
2023-02-28T22:24:31.780Z,58.14
2023-02-28T22:27:33.854Z,58.08
2023-02-28T22:30:35.236Z,57.84
2023-02-28T22:33:36.599Z,58.87
2023-02-28T22:36:41.388Z,58.47
2023-02-28T22:39:42.874Z,58.87
2023-02-28T22:42:44.265Z,59.08
2023-02-28T22:45:45.684Z,58.36
2023-02-28T22:48:48.666Z,59.13
2023-02-28T22:51:50.080Z,58.77
2023-02-28T22:54:52.051Z,58.70
2023-02-28T22:57:53.474Z,58.78
2023-02-28T23:00:55.366Z,59.10
2023-02-28T23:03:57.247Z,58.44
2023-02-28T23:06:58.695Z,57.78
2023-02-28T23:10:00.144Z,58.67
2023-02-28T23:13:01.524Z,59.09
2023-02-28T23:16:07.235Z,58.71
2023-02-28T23:19:11.632Z,58.65
2023-02-28T23:22:13.011Z,59.35
2023-02-28T23:25:14.509Z,59.99
2023-02-28T23:28:16.266Z,59.97
2023-02-28T23:31:17.760Z,60.21
2023-02-28T23:34:26.103Z,60.39
2023-02-28T23:37:27.489Z,60.79
2023-02-28T23:40:28.930Z,60.40
2023-02-28T23:43:30.315Z,60.68
2023-02-28T23:46:32.104Z,61.28
2023-02-28T23:49:33.641Z,60.75
2023-02-28T23:52:35.098Z,60.82
2023-02-28T23:55:36.611Z,60.83
2023-02-28T23:58:37.995Z,60.91
